createdAt,value
2019-01-05T00:00:09.132Z,52.59
2019-01-05T00:01:30.544Z,52.60
2019-01-05T00:02:51.646Z,52.60
2019-01-05T00:04:12.129Z,52.56
2019-01-05T00:05:48.733Z,52.58
2019-01-05T00:07:04.720Z,52.57
2019-01-05T00:08:24.750Z,52.45
2019-01-05T00:09:55.893Z,52.45
2019-01-05T00:11:26.534Z,52.45
2019-01-05T00:12:54.172Z,52.50
2019-01-05T00:14:34.212Z,52.48
2019-01-05T00:16:08.591Z,52.46
2019-01-05T00:17:38.964Z,52.47
2019-01-05T00:18:59.023Z,52.45
2019-01-05T00:20:35.690Z,52.44
2019-01-05T00:22:15.223Z,52.46
2019-01-05T00:23:28.555Z,52.47
2019-01-05T00:24:48.717Z,52.52
2019-01-05T00:26:15.757Z,52.54
2019-01-05T00:27:55.296Z,52.50
2019-01-05T00:29:15.577Z,52.53
2019-01-05T00:30:35.459Z,52.54
2019-01-05T00:32:09.971Z,52.54
2019-01-05T00:33:45.309Z,52.54
2019-01-05T00:35:13.069Z,52.55
2019-01-05T00:36:40.408Z,52.55
2019-01-05T00:38:04.578Z,52.56
2019-01-05T00:39:40.937Z,52.56
2019-01-05T00:41:11.260Z,52.58
2019-01-05T00:42:32.664Z,52.59
2019-01-05T00:43:54.055Z,52.58
2019-01-05T00:45:13.739Z,52.59
2019-01-05T00:46:35.058Z,52.61
2019-01-05T00:48:08.657Z,52.63
2019-01-05T00:49:45.099Z,52.64
2019-01-05T00:51:04.908Z,52.67
2019-01-05T00:52:24.848Z,52.68
2019-01-05T00:53:44.826Z,52.67
2019-01-05T00:55:12.376Z,52.65
2019-01-05T00:56:50.107Z,52.64
2019-01-05T00:58:25.372Z,52.64
2019-01-05T00:59:45.886Z,52.63
2019-01-05T01:01:26.032Z,52.62
2019-01-05T01:02:46.007Z,52.65
2019-01-05T01:04:06.014Z,52.70
2019-01-05T01:05:46.242Z,52.65
2019-01-05T01:07:06.105Z,52.64
2019-01-05T01:08:30.285Z,52.65
2019-01-05T01:09:59.262Z,52.65
2019-01-05T01:11:19.271Z,52.68
2019-01-05T01:12:40.543Z,52.68
2019-01-05T01:14:15.136Z,52.70
2019-01-05T01:15:35.278Z,52.67
2019-01-05T01:16:59.384Z,52.69
2019-01-05T01:18:19.212Z,52.68
2019-01-05T01:19:39.092Z,52.68
2019-01-05T01:20:51.096Z,52.71
2019-01-05T01:22:10.790Z,52.72
2019-01-05T01:23:28.060Z,52.69
2019-01-05T01:24:54.897Z,52.70
2019-01-05T01:26:25.211Z,52.69
2019-01-05T01:27:49.128Z,52.72
2019-01-05T01:29:21.834Z,52.74
2019-01-05T01:32:34.194Z,52.74
2019-01-05T01:33:54.091Z,52.74
2019-01-05T01:35:13.982Z,52.75
2019-01-05T01:36:35.014Z,52.76
2019-01-05T01:37:47.412Z,52.77
2019-01-05T01:39:15.011Z,52.75
2019-01-05T01:40:46.695Z,52.77
2019-01-05T01:42:06.557Z,52.75
2019-01-05T01:43:41.922Z,52.76
2019-01-05T01:45:05.751Z,52.76
2019-01-05T01:46:32.714Z,52.76
2019-01-05T01:47:59.266Z,52.78
2019-01-05T01:49:33.350Z,52.78
2019-01-05T01:50:53.292Z,52.79
2019-01-05T01:52:31.733Z,52.79
2019-01-05T01:53:52.125Z,52.77
2019-01-05T01:55:31.537Z,52.78
2019-01-05T01:56:51.106Z,52.77
2019-01-05T01:58:10.887Z,52.77
2019-01-05T01:59:26.854Z,52.76
2019-01-05T02:00:41.212Z,52.79
2019-01-05T02:02:13.583Z,52.83
2019-01-05T02:03:33.409Z,52.82
2019-01-05T02:04:57.714Z,52.82
2019-01-05T02:06:36.937Z,52.80
2019-01-05T02:07:56.919Z,52.82
2019-01-05T02:09:15.024Z,52.81
2019-01-05T02:10:38.839Z,52.84
2019-01-05T02:11:59.860Z,52.87
2019-01-05T02:13:17.866Z,52.86
2019-01-05T02:14:50.134Z,52.85
2019-01-05T02:16:20.218Z,52.84
2019-01-05T02:17:59.468Z,52.85
2019-01-05T02:19:20.525Z,52.88
2019-01-05T02:20:40.277Z,52.87
2019-01-05T02:21:59.260Z,52.86
2019-01-05T02:23:32.055Z,52.84
2019-01-05T02:24:51.752Z,52.86
2019-01-05T02:26:11.539Z,52.86
2019-01-05T02:27:32.571Z,52.88
2019-01-05T02:29:02.922Z,52.86
2019-01-05T02:30:22.893Z,52.88
2019-01-05T02:31:38.957Z,52.88
2019-01-05T02:34:53.853Z,52.89
2019-01-05T02:36:33.289Z,52.92
2019-01-05T02:37:52.935Z,52.88
2019-01-05T02:39:16.480Z,52.89
2019-01-05T02:40:40.356Z,52.89
2019-01-05T02:42:00.171Z,52.90
2019-01-05T02:43:20.061Z,52.90
2019-01-05T02:44:40.152Z,52.93
2019-01-05T02:46:10.909Z,52.93
2019-01-05T02:47:30.703Z,52.92
2019-01-05T02:48:53.932Z,52.94
2019-01-05T02:50:24.219Z,52.96
2019-01-05T02:51:35.496Z,52.92
2019-01-05T02:52:59.343Z,52.91
2019-01-05T02:54:26.610Z,52.93
2019-01-05T02:55:46.361Z,52.90
2019-01-05T02:57:11.441Z,52.93
2019-01-05T02:58:44.566Z,52.94
2019-01-05T03:00:04.227Z,52.95
2019-01-05T03:01:37.414Z,52.92
2019-01-05T03:02:54.212Z,52.92
2019-01-05T03:04:14.029Z,52.95
2019-01-05T03:05:34.055Z,52.95
2019-01-05T03:07:01.825Z,52.95
2019-01-05T03:08:32.285Z,52.95
2019-01-05T03:10:08.534Z,52.97
2019-01-05T03:11:28.570Z,52.96
2019-01-05T03:12:49.679Z,52.96
2019-01-05T03:14:16.823Z,52.96
2019-01-05T03:15:36.873Z,52.97
2019-01-05T03:16:53.140Z,52.97
2019-01-05T03:18:14.174Z,52.96
2019-01-05T03:19:27.729Z,53.01
2019-01-05T03:20:47.552Z,52.99
2019-01-05T03:22:11.805Z,52.97
2019-01-05T03:23:41.933Z,52.96
2019-01-05T03:25:15.228Z,53.01
2019-01-05T03:26:35.087Z,52.99
2019-01-05T03:28:05.293Z,52.97
2019-01-05T03:29:32.721Z,53.02
2019-01-05T03:30:52.428Z,53.01
2019-01-05T03:32:25.957Z,53.00
2019-01-05T03:33:59.342Z,53.01
2019-01-05T03:35:20.452Z,52.96
2019-01-05T03:36:41.504Z,52.99
2019-01-05T03:38:14.726Z,52.99
2019-01-05T03:39:45.050Z,53.02
2019-01-05T03:41:04.826Z,53.01
2019-01-05T03:42:33.826Z,53.02
2019-01-05T03:43:52.562Z,53.02
2019-01-05T03:45:12.514Z,53.03
2019-01-05T03:46:19.385Z,53.02
2019-01-05T03:47:52.858Z,53.03
2019-01-05T03:49:17.209Z,53.06
2019-01-05T03:50:36.905Z,53.07
2019-01-05T03:51:57.943Z,53.08
2019-01-05T03:53:28.065Z,53.09
2019-01-05T03:54:48.108Z,53.12
2019-01-05T03:56:08.032Z,53.16
2019-01-05T03:57:44.022Z,53.17
2019-01-05T03:59:07.860Z,53.20
2019-01-05T04:00:27.789Z,53.17
2019-01-05T04:01:54.866Z,53.21
2019-01-05T04:03:18.582Z,53.20
2019-01-05T04:04:45.027Z,53.22
2019-01-05T04:06:04.627Z,53.21
2019-01-05T04:07:28.674Z,53.22
2019-01-05T04:08:51.678Z,53.23
2019-01-05T04:10:11.180Z,53.27
2019-01-05T04:11:34.813Z,53.26
2019-01-05T04:12:58.871Z,53.28
2019-01-05T04:14:19.894Z,53.29
2019-01-05T04:15:53.018Z,53.30
2019-01-05T04:17:12.787Z,53.31
2019-01-05T04:18:38.443Z,53.30
2019-01-05T04:19:58.647Z,53.28
2019-01-05T04:21:34.916Z,53.30
2019-01-05T04:23:11.177Z,53.30
2019-01-05T04:24:31.180Z,53.34
2019-01-05T04:26:07.761Z,53.35
2019-01-05T04:27:27.735Z,53.38
2019-01-05T04:28:55.108Z,53.37
2019-01-05T04:30:14.795Z,53.39
2019-01-05T04:31:53.827Z,53.37
2019-01-05T04:33:30.296Z,53.43
2019-01-05T04:34:54.609Z,53.39
2019-01-05T04:36:14.198Z,53.45
2019-01-05T04:37:38.000Z,53.48
2019-01-05T04:38:58.142Z,53.48
2019-01-05T04:40:12.673Z,53.43
2019-01-05T04:41:36.601Z,53.49
2019-01-05T04:42:56.619Z,53.47
2019-01-05T04:44:16.694Z,53.50
2019-01-05T04:45:43.698Z,53.52
2019-01-05T04:47:00.058Z,53.56
2019-01-05T04:48:22.531Z,53.57
2019-01-05T04:49:52.734Z,53.59
2019-01-05T04:51:12.591Z,53.55
2019-01-05T04:52:45.759Z,53.54
2019-01-05T04:54:12.703Z,53.53
2019-01-05T04:55:42.825Z,53.56
2019-01-05T04:57:02.498Z,53.53
2019-01-05T04:58:26.536Z,53.57
2019-01-05T04:59:50.243Z,53.62
2019-01-05T05:01:09.956Z,53.59
2019-01-05T05:02:24.292Z,53.64
2019-01-05T05:03:46.028Z,53.57
2019-01-05T05:05:00.199Z,53.64
2019-01-05T05:06:20.239Z,53.64
2019-01-05T05:07:41.260Z,53.61
2019-01-05T05:09:08.377Z,53.58
2019-01-05T05:10:38.736Z,53.64
2019-01-05T05:11:58.533Z,53.66
2019-01-05T05:13:18.295Z,53.59
2019-01-05T05:14:37.903Z,53.68
2019-01-05T05:15:57.648Z,53.65
2019-01-05T05:17:21.737Z,53.66
2019-01-05T05:18:58.321Z,53.64
2019-01-05T05:20:11.819Z,53.63
2019-01-05T05:21:31.737Z,53.67
2019-01-05T05:22:53.828Z,53.66
2019-01-05T05:24:20.974Z,53.63
2019-01-05T05:25:40.781Z,53.65
2019-01-05T05:27:00.873Z,53.68
2019-01-05T05:28:21.922Z,53.63
2019-01-05T05:29:55.118Z,53.69
2019-01-05T05:31:14.910Z,53.67
2019-01-05T05:32:35.785Z,53.70
2019-01-05T05:33:54.715Z,53.61
2019-01-05T05:35:33.971Z,53.59
2019-01-05T05:36:53.895Z,53.58
2019-01-05T05:38:31.143Z,53.60
2019-01-05T05:39:51.323Z,53.55
2019-01-05T05:41:13.504Z,53.49
2019-01-05T05:42:46.455Z,53.48
2019-01-05T05:44:12.785Z,53.45
2019-01-05T05:45:27.696Z,53.46
2019-01-05T05:46:56.043Z,53.42
2019-01-05T05:48:16.002Z,53.41
2019-01-05T05:49:39.883Z,53.37
2019-01-05T05:51:16.336Z,53.31
2019-01-05T05:52:40.621Z,53.28
2019-01-05T05:54:06.011Z,53.26
2019-01-05T05:55:20.585Z,53.23
2019-01-05T05:56:50.735Z,53.20
2019-01-05T05:58:10.416Z,53.14
2019-01-05T05:59:30.867Z,53.06
2019-01-05T06:00:55.058Z,53.04
2019-01-05T06:02:15.079Z,52.99
2019-01-05T06:03:48.585Z,52.99
2019-01-05T06:05:24.937Z,53.00
2019-01-05T06:06:44.553Z,52.98
2019-01-05T06:08:04.986Z,52.99
2019-01-05T06:09:44.195Z,53.02
2019-01-05T06:11:16.185Z,53.01
2019-01-05T06:12:35.734Z,53.05
2019-01-05T06:13:52.756Z,53.07
2019-01-05T06:15:13.840Z,53.12
2019-01-05T06:16:40.781Z,53.13
2019-01-05T06:18:03.445Z,53.15
2019-01-05T06:19:23.371Z,53.19
2019-01-05T06:20:43.253Z,53.20
2019-01-05T06:22:07.246Z,53.22
2019-01-05T06:23:25.286Z,53.24
2019-01-05T06:24:45.297Z,53.24
2019-01-05T06:26:12.423Z,53.28
2019-01-05T06:27:51.925Z,53.32
2019-01-05T06:29:22.089Z,53.31
2019-01-05T06:30:45.173Z,53.29
2019-01-05T06:32:09.539Z,53.37
2019-01-05T06:33:29.165Z,53.35
2019-01-05T06:34:49.013Z,53.41
2019-01-05T06:36:25.435Z,53.41
2019-01-05T06:37:49.230Z,53.46
2019-01-05T06:39:01.406Z,53.48
2019-01-05T06:40:13.734Z,53.51
2019-01-05T06:41:34.838Z,53.53
2019-01-05T06:42:54.983Z,53.54
2019-01-05T06:44:25.186Z,53.54
2019-01-05T06:45:44.784Z,53.55
2019-01-05T06:47:03.822Z,53.58
2019-01-05T06:48:24.851Z,53.59
2019-01-05T06:49:52.846Z,53.61
2019-01-05T06:51:12.935Z,53.63
2019-01-05T06:52:32.820Z,53.66
2019-01-05T06:53:52.770Z,53.69
2019-01-05T06:55:19.950Z,53.70
2019-01-05T06:56:40.142Z,53.69
2019-01-05T06:57:56.308Z,53.69
2019-01-05T06:59:16.376Z,53.69
2019-01-05T07:00:37.425Z,53.68
2019-01-05T07:01:57.270Z,53.70
2019-01-05T07:03:18.852Z,53.69
2019-01-05T07:04:38.644Z,53.70
2019-01-05T07:06:12.068Z,53.71
2019-01-05T07:07:47.007Z,53.74
2019-01-05T07:09:06.869Z,53.68
2019-01-05T07:10:34.106Z,53.70
2019-01-05T07:11:57.908Z,53.71
2019-01-05T07:13:13.242Z,53.76
2019-01-05T07:14:43.528Z,53.76
2019-01-05T07:16:22.246Z,53.80
2019-01-05T07:17:49.082Z,53.78
2019-01-05T07:19:22.156Z,53.83
2019-01-05T07:20:45.878Z,53.84
2019-01-05T07:22:16.456Z,53.86
2019-01-05T07:23:40.599Z,53.84
2019-01-05T07:25:06.364Z,53.83
2019-01-05T07:26:26.308Z,53.85
2019-01-05T07:27:55.997Z,53.84
2019-01-05T07:29:26.334Z,53.87
2019-01-05T07:31:01.892Z,53.87
2019-01-05T07:32:25.857Z,53.91
2019-01-05T07:33:45.900Z,53.92
2019-01-05T07:35:06.178Z,53.93
2019-01-05T07:36:30.740Z,53.94
2019-01-05T07:38:05.390Z,53.91
2019-01-05T07:39:41.706Z,53.92
2019-01-05T07:40:55.478Z,53.93
2019-01-05T07:42:27.022Z,53.96
2019-01-05T07:43:56.860Z,53.95
2019-01-05T07:45:29.028Z,53.98
2019-01-05T07:46:46.207Z,53.98
2019-01-05T07:48:13.059Z,53.98
2019-01-05T07:49:51.228Z,53.98
2019-01-05T07:51:14.916Z,53.97
2019-01-05T07:52:34.649Z,54.03
2019-01-05T07:54:04.828Z,53.99
2019-01-05T07:55:38.089Z,54.02
2019-01-05T07:56:58.033Z,54.04
2019-01-05T07:58:17.723Z,54.03
2019-01-05T07:59:44.384Z,54.02
2019-01-05T08:01:20.556Z,54.00
2019-01-05T08:02:44.516Z,54.01
2019-01-05T08:04:04.073Z,54.03
2019-01-05T08:05:23.894Z,54.02
2019-01-05T08:06:46.506Z,54.02
2019-01-05T08:08:22.686Z,54.04
2019-01-05T08:09:49.704Z,54.07
2019-01-05T08:11:09.470Z,54.07
2019-01-05T08:12:49.092Z,54.03
2019-01-05T08:14:25.625Z,54.08
2019-01-05T08:15:55.959Z,54.09
2019-01-05T08:17:24.078Z,54.06
2019-01-05T08:18:50.294Z,54.04
2019-01-05T08:20:11.331Z,54.07
2019-01-05T08:21:39.993Z,54.07
2019-01-05T08:22:59.626Z,54.06
2019-01-05T08:24:19.509Z,54.06
2019-01-05T08:25:39.391Z,54.03
2019-01-05T08:27:07.641Z,54.06
2019-01-05T08:28:36.454Z,54.05
2019-01-05T08:29:58.386Z,54.05
2019-01-05T08:31:28.258Z,54.04
2019-01-05T08:32:58.397Z,54.05
2019-01-05T08:34:31.482Z,54.03
2019-01-05T08:35:51.237Z,54.04
2019-01-05T08:37:19.557Z,54.06
2019-01-05T08:38:39.314Z,54.04
2019-01-05T08:39:54.923Z,54.06
2019-01-05T08:41:10.438Z,54.04
2019-01-05T08:42:30.390Z,54.07
2019-01-05T08:43:50.150Z,54.05
2019-01-05T08:45:10.211Z,54.04
2019-01-05T08:46:30.127Z,54.05
2019-01-05T08:47:47.153Z,54.04
2019-01-05T08:49:19.121Z,54.01
2019-01-05T08:50:46.019Z,54.01
2019-01-05T08:52:06.061Z,54.03
2019-01-05T08:53:23.121Z,54.06
2019-01-05T08:54:42.873Z,54.06
2019-01-05T08:56:03.975Z,54.05
2019-01-05T08:57:23.659Z,54.07
2019-01-05T08:58:44.309Z,54.04
2019-01-05T09:00:05.383Z,54.05
2019-01-05T09:01:34.945Z,54.02
2019-01-05T09:03:14.430Z,54.04
2019-01-05T09:04:34.265Z,54.01
2019-01-05T09:06:01.533Z,53.98
2019-01-05T09:07:23.180Z,54.05
2019-01-05T09:08:59.453Z,54.03
2019-01-05T09:10:38.455Z,54.04
2019-01-05T09:12:05.055Z,54.02
2019-01-05T09:13:29.490Z,54.04
2019-01-05T09:14:45.771Z,54.04
2019-01-05T09:16:05.257Z,54.05
2019-01-05T09:17:32.150Z,54.04
2019-01-05T09:19:04.643Z,54.04
2019-01-05T09:20:37.942Z,54.01
2019-01-05T09:22:02.034Z,54.02
2019-01-05T09:23:22.174Z,54.02
2019-01-05T09:24:41.959Z,54.00
2019-01-05T09:26:03.001Z,54.00
2019-01-05T09:27:34.285Z,54.01
2019-01-05T09:28:55.518Z,54.00
2019-01-05T09:30:22.629Z,53.98
2019-01-05T09:31:42.371Z,54.01
2019-01-05T09:33:18.798Z,53.99
2019-01-05T09:34:44.197Z,53.96
2019-01-05T09:36:07.892Z,53.98
2019-01-05T09:37:27.545Z,54.00
2019-01-05T09:38:44.268Z,54.01
2019-01-05T09:40:03.978Z,54.01
2019-01-05T09:41:38.066Z,54.04
2019-01-05T09:43:17.340Z,53.99
2019-01-05T09:44:40.679Z,54.01
2019-01-05T09:46:10.798Z,54.00
2019-01-05T09:47:32.615Z,54.01
2019-01-05T09:48:52.155Z,54.03
2019-01-05T09:50:14.685Z,54.01
2019-01-05T09:51:33.563Z,54.02
2019-01-05T09:52:57.584Z,54.03
2019-01-05T09:54:17.544Z,54.01
2019-01-05T09:55:39.701Z,54.04
2019-01-05T09:57:07.004Z,54.03
2019-01-05T09:58:43.126Z,54.01
2019-01-05T10:00:02.878Z,54.02
2019-01-05T10:01:23.978Z,54.00
2019-01-05T10:02:51.142Z,54.03
2019-01-05T10:04:11.364Z,54.01
2019-01-05T10:05:31.778Z,54.01
2019-01-05T10:06:51.661Z,54.03
2019-01-05T10:08:11.778Z,54.02
2019-01-05T10:09:41.893Z,54.00
2019-01-05T10:11:14.813Z,53.99
2019-01-05T10:12:38.789Z,54.01
2019-01-05T10:14:05.907Z,54.00
2019-01-05T10:15:26.953Z,53.98
2019-01-05T10:16:55.380Z,53.96
2019-01-05T10:18:39.423Z,53.93
2019-01-05T10:20:02.808Z,53.96
2019-01-05T10:21:29.941Z,53.96
2019-01-05T10:22:49.588Z,53.96
2019-01-05T10:24:08.876Z,53.96
2019-01-05T10:25:28.634Z,53.98
2019-01-05T10:27:01.854Z,53.97
2019-01-05T10:28:32.171Z,53.96
2019-01-05T10:30:08.234Z,53.96
2019-01-05T10:31:29.747Z,53.95
2019-01-05T10:32:47.359Z,53.94
2019-01-05T10:34:14.530Z,53.92
2019-01-05T10:35:53.935Z,53.94
2019-01-05T10:37:24.091Z,53.86
2019-01-05T10:38:47.637Z,53.96
2019-01-05T10:40:08.775Z,53.96
2019-01-05T10:41:32.867Z,53.98
2019-01-05T10:42:52.325Z,53.97
2019-01-05T10:44:11.672Z,54.02
2019-01-05T10:45:38.836Z,54.00
2019-01-05T10:47:05.661Z,54.03
2019-01-05T10:48:33.741Z,53.95
2019-01-05T10:50:06.874Z,53.98
2019-01-05T10:51:26.798Z,54.01
2019-01-05T10:52:40.789Z,54.01
2019-01-05T10:54:07.919Z,54.00
2019-01-05T10:55:28.737Z,54.01
2019-01-05T10:57:05.421Z,53.99
2019-01-05T10:58:25.150Z,53.99
2019-01-05T10:59:45.313Z,54.02
2019-01-05T11:01:13.816Z,54.03
2019-01-05T11:02:34.846Z,54.02
2019-01-05T11:03:59.365Z,54.03
2019-01-05T11:05:19.199Z,54.02
2019-01-05T11:06:37.111Z,54.06
2019-01-05T11:08:03.936Z,54.08
2019-01-05T11:09:30.907Z,54.09
2019-01-05T11:10:52.603Z,54.08
2019-01-05T11:12:16.496Z,54.10
2019-01-05T11:13:35.907Z,54.14
2019-01-05T11:14:54.062Z,54.14
2019-01-05T11:16:13.977Z,54.16
2019-01-05T11:17:42.007Z,54.15
2019-01-05T11:18:59.909Z,54.13
2019-01-05T11:20:16.101Z,54.15
2019-01-05T11:21:29.136Z,54.13
2019-01-05T11:22:47.700Z,54.13
2019-01-05T11:24:07.618Z,54.09
2019-01-05T11:25:28.656Z,54.14
2019-01-05T11:27:08.294Z,54.07
2019-01-05T11:28:38.417Z,54.10
2019-01-05T11:30:12.255Z,54.10
2019-01-05T11:31:33.560Z,54.06
2019-01-05T11:32:57.633Z,54.09
2019-01-05T11:34:13.079Z,54.12
2019-01-05T11:35:44.140Z,54.08
2019-01-05T11:37:05.497Z,54.06
2019-01-05T11:38:25.856Z,54.01
2019-01-05T11:39:53.305Z,54.04
2019-01-05T11:41:24.156Z,54.05
2019-01-05T11:42:44.046Z,54.05
2019-01-05T11:44:04.376Z,54.07
2019-01-05T11:45:26.198Z,54.07
2019-01-05T11:46:57.521Z,54.05
2019-01-05T11:48:17.907Z,54.09
2019-01-05T11:49:40.035Z,54.08
2019-01-05T11:51:01.748Z,54.14
2019-01-05T11:52:21.211Z,54.15
2019-01-05T11:53:41.392Z,54.16
2019-01-05T11:55:01.670Z,54.16
2019-01-05T11:56:21.502Z,54.13
2019-01-05T11:57:41.623Z,54.17
2019-01-05T11:59:11.940Z,54.22
2019-01-05T12:00:34.541Z,54.27
2019-01-05T12:01:59.707Z,54.23
2019-01-05T12:03:19.863Z,54.19
2019-01-05T12:04:46.996Z,54.18
2019-01-05T12:06:11.407Z,54.12
2019-01-05T12:07:33.082Z,54.07
2019-01-05T12:09:09.700Z,54.11
2019-01-05T12:10:39.882Z,54.12
2019-01-05T12:11:59.535Z,54.07
2019-01-05T12:13:23.645Z,54.07
2019-01-05T12:14:54.134Z,54.12
2019-01-05T12:16:14.304Z,54.08
2019-01-05T12:17:47.899Z,54.06
2019-01-05T12:19:08.355Z,54.06
2019-01-05T12:20:34.403Z,54.04
2019-01-05T12:21:54.377Z,54.04
2019-01-05T12:23:10.161Z,54.06
2019-01-05T12:24:29.210Z,54.07
2019-01-05T12:25:49.060Z,54.10
2019-01-05T12:27:13.595Z,54.08
2019-01-05T12:28:33.536Z,54.04
2019-01-05T12:29:53.312Z,54.04
2019-01-05T12:31:13.210Z,54.07
2019-01-05T12:32:30.976Z,54.06
2019-01-05T12:33:50.747Z,54.05
2019-01-05T12:35:11.944Z,54.07
2019-01-05T12:36:32.258Z,54.06
2019-01-05T12:37:53.666Z,54.05
2019-01-05T12:39:26.132Z,54.07
2019-01-05T12:40:47.235Z,54.07
2019-01-05T12:42:17.110Z,54.08
2019-01-05T12:43:43.570Z,54.06
2019-01-05T12:45:03.166Z,54.10
2019-01-05T12:46:23.480Z,54.10
2019-01-05T12:47:50.908Z,54.10
2019-01-05T12:49:10.714Z,54.11
2019-01-05T12:50:50.246Z,54.10
2019-01-05T12:52:06.690Z,54.09
2019-01-05T12:53:33.814Z,54.12
2019-01-05T12:54:53.272Z,54.12
2019-01-05T12:56:11.346Z,54.14
2019-01-05T12:57:28.429Z,54.15
2019-01-05T12:58:40.308Z,54.14
2019-01-05T12:59:56.822Z,54.14
2019-01-05T13:01:17.953Z,54.16
2019-01-05T13:02:45.415Z,54.10
2019-01-05T13:04:11.888Z,54.16
2019-01-05T13:05:31.632Z,54.13
2019-01-05T13:06:51.574Z,54.15
2019-01-05T13:08:08.428Z,54.14
2019-01-05T13:09:29.966Z,54.16
2019-01-05T13:11:00.048Z,54.16
2019-01-05T13:12:20.040Z,54.22
2019-01-05T13:13:54.244Z,54.22
2019-01-05T13:15:10.832Z,54.24
2019-01-05T13:16:27.356Z,54.27
2019-01-05T13:17:45.335Z,54.26
2019-01-05T13:19:08.992Z,54.30
2019-01-05T13:20:38.406Z,54.32
2019-01-05T13:22:12.334Z,54.32
2019-01-05T13:23:32.076Z,54.35
2019-01-05T13:24:59.185Z,54.36
2019-01-05T13:26:38.430Z,54.36
2019-01-05T13:28:02.058Z,54.35
2019-01-05T13:29:34.950Z,54.37
2019-01-05T13:30:54.751Z,54.36
2019-01-05T13:32:15.772Z,54.36
2019-01-05T13:33:35.564Z,54.34
2019-01-05T13:35:11.785Z,54.34
2019-01-05T13:36:31.502Z,54.36
2019-01-05T13:37:51.210Z,54.35
2019-01-05T13:39:22.384Z,54.35
2019-01-05T13:40:58.673Z,54.36
2019-01-05T13:42:21.044Z,54.30
2019-01-05T13:43:42.202Z,54.28
2019-01-05T13:45:02.190Z,54.27
2019-01-05T13:46:29.409Z,54.26
2019-01-05T13:48:04.615Z,54.25
2019-01-05T13:49:26.327Z,54.28
2019-01-05T13:50:46.247Z,54.24
2019-01-05T13:52:16.249Z,54.15
2019-01-05T13:53:37.276Z,54.10
2019-01-05T13:55:03.036Z,53.98
2019-01-05T13:56:27.501Z,53.98
2019-01-05T13:57:51.557Z,53.95
2019-01-05T13:59:11.509Z,53.98
2019-01-05T14:00:25.578Z,54.00
2019-01-05T14:01:58.796Z,54.00
2019-01-05T14:03:18.227Z,53.98
2019-01-05T14:04:57.380Z,54.00
2019-01-05T14:06:28.489Z,54.03
2019-01-05T14:07:51.699Z,54.01
2019-01-05T14:09:11.785Z,54.10
2019-01-05T14:10:36.058Z,54.04
2019-01-05T14:11:57.084Z,54.06
2019-01-05T14:13:13.794Z,54.08
2019-01-05T14:14:33.434Z,54.12
2019-01-05T14:15:57.543Z,54.13
2019-01-05T14:17:19.276Z,54.12
2019-01-05T14:18:40.385Z,54.17
2019-01-05T14:20:00.301Z,54.26
2019-01-05T14:21:20.998Z,54.26
2019-01-05T14:22:54.319Z,54.28
2019-01-05T14:24:14.180Z,54.28
2019-01-05T14:25:39.806Z,54.31
2019-01-05T14:26:57.183Z,54.30
2019-01-05T14:28:17.289Z,54.33
2019-01-05T14:29:33.758Z,54.34
2019-01-05T14:31:03.980Z,54.34
2019-01-05T14:32:40.121Z,54.31
2019-01-05T14:34:04.312Z,54.32
2019-01-05T14:35:18.258Z,54.30
2019-01-05T14:36:40.282Z,54.38
2019-01-05T14:37:59.578Z,54.35
2019-01-05T14:39:35.724Z,54.36
2019-01-05T14:41:09.198Z,54.39
2019-01-05T14:42:26.673Z,54.43
2019-01-05T14:43:46.470Z,54.40
2019-01-05T14:45:10.930Z,54.39
2019-01-05T14:46:40.766Z,54.42
2019-01-05T14:48:08.948Z,54.43
2019-01-05T14:49:48.111Z,54.45
2019-01-05T14:51:20.283Z,54.42
2019-01-05T14:52:31.464Z,54.43
2019-01-05T14:53:49.410Z,54.43
2019-01-05T14:55:01.211Z,54.46
2019-01-05T14:56:24.911Z,54.46
2019-01-05T14:57:45.393Z,54.44
2019-01-05T14:59:05.982Z,54.45
2019-01-05T15:00:33.089Z,54.50
2019-01-05T15:01:53.616Z,54.50
2019-01-05T15:03:13.375Z,54.47
2019-01-05T15:04:49.847Z,54.49
2019-01-05T15:06:09.864Z,54.50
2019-01-05T15:07:28.084Z,54.49
2019-01-05T15:08:50.101Z,54.50
2019-01-05T15:10:11.793Z,54.45
2019-01-05T15:11:31.756Z,54.49
2019-01-05T15:12:49.096Z,54.49
2019-01-05T15:14:13.520Z,54.51
2019-01-05T15:15:33.426Z,54.47
2019-01-05T15:17:00.829Z,54.46
2019-01-05T15:18:22.003Z,54.47
2019-01-05T15:19:43.227Z,54.47
2019-01-05T15:21:08.147Z,54.47
2019-01-05T15:22:41.383Z,54.45
2019-01-05T15:24:14.353Z,54.43
2019-01-05T15:25:33.997Z,54.43
2019-01-05T15:26:53.870Z,54.42
2019-01-05T15:28:23.187Z,54.44
2019-01-05T15:29:52.909Z,54.44
2019-01-05T15:31:23.275Z,54.41
2019-01-05T15:32:46.903Z,54.42
2019-01-05T15:34:20.139Z,54.43
2019-01-05T15:35:39.792Z,54.43
2019-01-05T15:37:00.859Z,54.41
2019-01-05T15:38:20.674Z,54.44
2019-01-05T15:39:40.688Z,54.41
2019-01-05T15:41:05.071Z,54.42
2019-01-05T15:42:32.527Z,54.40
2019-01-05T15:44:05.713Z,54.42
2019-01-05T15:45:27.012Z,54.37
2019-01-05T15:46:51.071Z,54.42
2019-01-05T15:48:15.391Z,54.39
2019-01-05T15:49:34.916Z,54.40
2019-01-05T15:50:55.030Z,54.40
2019-01-05T15:52:14.877Z,54.38
2019-01-05T15:53:50.130Z,54.39
2019-01-05T15:55:04.508Z,54.42
2019-01-05T15:56:37.716Z,54.39
2019-01-05T15:58:02.400Z,54.38
2019-01-05T15:59:30.382Z,54.37
2019-01-05T16:00:54.868Z,54.38
2019-01-05T16:02:14.736Z,54.36
2019-01-05T16:03:39.019Z,54.37
2019-01-05T16:05:02.135Z,54.39
2019-01-05T16:06:22.062Z,54.39
2019-01-05T16:07:47.835Z,54.39
2019-01-05T16:09:14.304Z,54.40
2019-01-05T16:10:38.440Z,54.40
2019-01-05T16:11:58.851Z,54.38
2019-01-05T16:13:18.853Z,54.38
2019-01-05T16:14:48.926Z,54.37
2019-01-05T16:16:08.652Z,54.37
2019-01-05T16:17:35.752Z,54.37
2019-01-05T16:18:52.004Z,54.41
2019-01-05T16:20:17.013Z,54.43
2019-01-05T16:21:36.865Z,54.41
2019-01-05T16:22:56.529Z,54.37
2019-01-05T16:24:29.969Z,54.38
2019-01-05T16:25:49.911Z,54.38
2019-01-05T16:27:09.690Z,54.38
2019-01-05T16:28:38.239Z,54.37
2019-01-05T16:30:08.435Z,54.40
2019-01-05T16:31:28.470Z,54.40
2019-01-05T16:32:48.573Z,54.41
2019-01-05T16:34:19.048Z,54.42
2019-01-05T16:35:52.228Z,54.38
2019-01-05T16:37:16.315Z,54.39
2019-01-05T16:38:37.353Z,54.36
2019-01-05T16:39:57.177Z,54.35
2019-01-05T16:41:20.427Z,54.39
2019-01-05T16:42:57.096Z,54.40
2019-01-05T16:44:16.453Z,54.36
2019-01-05T16:45:38.370Z,54.34
2019-01-05T16:47:14.316Z,54.37
2019-01-05T16:48:47.744Z,54.36
2019-01-05T16:50:05.023Z,54.38
2019-01-05T16:51:32.031Z,54.41
2019-01-05T16:52:51.920Z,54.39
2019-01-05T16:54:21.896Z,54.40
2019-01-05T16:55:42.990Z,54.38
2019-01-05T16:57:07.120Z,54.42
2019-01-05T16:58:40.332Z,54.37
2019-01-05T17:00:04.513Z,54.35
2019-01-05T17:01:28.395Z,54.35
2019-01-05T17:02:52.233Z,54.40
2019-01-05T17:04:12.180Z,54.36
2019-01-05T17:05:33.316Z,54.35
2019-01-05T17:06:57.149Z,54.37
2019-01-05T17:08:22.114Z,54.33
2019-01-05T17:09:37.510Z,54.38
2019-01-05T17:11:01.205Z,54.41
2019-01-05T17:12:20.127Z,54.37
2019-01-05T17:13:39.570Z,54.34
2019-01-05T17:15:16.280Z,54.35
2019-01-05T17:16:36.209Z,54.34
2019-01-05T17:17:55.881Z,54.34
2019-01-05T17:19:18.419Z,54.35
2019-01-05T17:20:30.829Z,54.33
2019-01-05T17:22:04.058Z,54.40
2019-01-05T17:23:34.272Z,54.45
2019-01-05T17:24:56.441Z,54.51
2019-01-05T17:26:20.014Z,54.53
2019-01-05T17:27:50.315Z,54.56
2019-01-05T17:29:06.208Z,54.55
2019-01-05T17:30:28.142Z,54.62
2019-01-05T17:31:55.207Z,54.63
2019-01-05T17:33:19.017Z,54.62
2019-01-05T17:34:38.987Z,54.61
2019-01-05T17:35:56.949Z,54.59
2019-01-05T17:37:16.815Z,54.58
2019-01-05T17:38:37.866Z,54.52
2019-01-05T17:39:52.567Z,54.45
2019-01-05T17:41:12.749Z,54.42
2019-01-05T17:42:36.915Z,54.22
2019-01-05T17:43:56.641Z,54.21
2019-01-05T17:45:09.286Z,53.96
2019-01-05T17:46:34.088Z,53.85
2019-01-05T17:47:54.187Z,53.76
2019-01-05T17:49:21.127Z,53.63
2019-01-05T17:51:00.607Z,53.54
2019-01-05T17:52:20.442Z,53.45
2019-01-05T17:53:50.882Z,53.37
2019-01-05T17:55:10.472Z,53.35
2019-01-05T17:56:30.325Z,53.39
2019-01-05T17:58:03.852Z,53.37
2019-01-05T17:59:36.993Z,53.36
2019-01-05T18:00:58.069Z,53.34
2019-01-05T18:02:31.289Z,53.40
2019-01-05T18:03:55.301Z,53.43
2019-01-05T18:05:31.553Z,53.43
2019-01-05T18:06:59.766Z,53.52
2019-01-05T18:08:27.177Z,53.55
2019-01-05T18:09:46.617Z,53.63